Time;durP1;ratioP1;P1;durP2;ratioP2;P2;SDS_P1;SDS_P2;PMS_P1;PMS_P2;Temp;Humidity;BMP_temperature;BMP_pressure;BME280_temperature;BME280_humidity;BME280_pressure;Samples;Min_cycle;Max_cycle;Signal;HPM_P1;HPM_P2
2021/10/15 00:02:15;;;;;;;20.57;16.23;;;7.10;99.90;;;5.92;100.00;98435.50;5023228;28;20578;-75
2021/10/15 00:04:42;;;;;;;20.90;17.27;;;7.20;99.90;;;5.96;100.00;98428.78;5020213;28;20555;-74
2021/10/15 00:07:08;;;;;;;19.53;17.00;;;7.20;99.90;;;5.81;100.00;98423.34;5018954;28;20455;-75
2021/10/15 00:09:36;;;;;;;17.70;15.40;;;7.20;99.90;;;5.84;100.00;98426.69;5025719;28;20532;-75
2021/10/15 00:12:04;;;;;;;18.87;15.90;;;7.10;99.90;;;5.86;100.00;98425.50;5026451;28;20549;-75
2021/10/15 00:14:33;;;;;;;20.10;16.20;;;7.10;99.90;;;5.86;100.00;98420.13;5021742;28;20540;-74
2021/10/15 00:17:00;;;;;;;19.30;16.00;;;7.10;99.90;;;5.89;100.00;98413.56;5026473;28;20550;-74
2021/10/15 00:19:27;;;;;;;18.27;16.37;;;7.20;99.90;;;5.77;100.00;98413.97;5025977;28;20883;-75
2021/10/15 00:21:54;;;;;;;23.20;18.60;;;7.10;99.90;;;5.78;100.00;98412.13;5021364;28;20478;-74
2021/10/15 00:24:21;;;;;;;22.20;17.10;;;7.10;99.90;;;5.77;100.00;98415.81;5026414;28;20488;-73
2021/10/15 00:26:48;;;;;;;27.60;18.27;;;7.10;99.90;;;5.68;100.00;98402.44;5031491;28;20471;-75
2021/10/15 00:29:14;;;;;;;22.90;17.87;;;7.00;99.90;;;5.65;100.00;98408.16;5024867;28;20451;-74
2021/10/15 00:31:43;;;;;;;20.77;16.60;;;7.00;99.90;;;5.60;100.00;98409.69;5040912;28;20457;-74
2021/10/15 00:34:10;;;;;;;20.73;16.50;;;6.90;99.90;;;5.63;100.00;98393.28;5024869;28;20477;-74
2021/10/15 00:36:37;;;;;;;26.73;18.30;;;6.90;99.90;;;5.48;100.00;98393.16;5023261;28;20452;-74
2021/10/15 00:39:04;;;;;;;20.23;16.63;;;6.80;99.90;;;5.59;100.00;98387.41;5025506;28;20580;-74
2021/10/15 00:41:31;;;;;;;21.00;17.83;;;6.90;99.90;;;5.61;100.00;98389.91;5028625;28;20474;-74
2021/10/15 00:44:04;;;;;;;29.90;17.50;;;6.90;99.90;;;5.58;100.00;98391.09;5030318;28;20797;-74
2021/10/15 00:46:31;;;;;;;23.77;18.03;;;6.90;99.90;;;5.58;100.00;98391.09;5029999;28;20541;-74
2021/10/15 00:49:01;;;;;;;25.87;18.40;;;6.90;99.90;;;5.63;100.00;98383.38;5028918;28;20458;-75
2021/10/15 00:51:28;;;;;;;27.53;18.07;;;6.90;99.90;;;5.58;100.00;98380.38;5032533;28;21027;-74
2021/10/15 00:53:55;;;;;;;24.43;18.67;;;6.90;99.90;;;5.56;100.00;98381.56;5030262;28;20474;-74
2021/10/15 00:56:24;;;;;;;23.47;18.90;;;6.90;99.90;;;5.47;100.00;98375.41;5028232;28;20824;-75
2021/10/15 00:58:51;;;;;;;25.10;18.17;;;6.80;99.90;;;5.41;100.00;98376.91;5030163;28;20852;-75
2021/10/15 01:01:18;;;;;;;24.50;17.97;;;6.80;99.90;;;5.52;100.00;98373.03;5029663;28;21064;-75
2021/10/15 01:03:45;;;;;;;23.13;19.67;;;6.80;99.90;;;5.52;100.00;98364.97;5025974;28;20461;-73
2021/10/15 01:06:13;;;;;;;22.53;16.90;;;6.80;99.90;;;5.54;100.00;98352.25;5030749;28;21043;-74
2021/10/15 01:08:46;;;;;;;22.57;18.17;;;6.80;99.90;;;5.44;100.00;98354.31;5029345;28;20462;-74
2021/10/15 01:11:15;;;;;;;28.80;18.23;;;6.70;99.90;;;5.48;100.00;98358.31;5029129;28;21347;-75
2021/10/15 01:13:42;;;;;;;23.37;17.60;;;6.70;99.90;;;5.41;100.00;98349.31;5026818;28;20468;-75
2021/10/15 01:16:11;;;;;;;24.17;17.17;;;6.70;99.90;;;5.13;100.00;98344.38;5020983;28;20474;-75
2021/10/15 01:18:40;;;;;;;23.00;17.10;;;6.50;99.90;;;5.15;100.00;98342.34;5029033;28;20826;-76
2021/10/15 01:21:11;;;;;;;23.00;17.40;;;6.50;99.90;;;5.21;100.00;98337.16;5027573;28;21020;-75
2021/10/15 01:23:40;;;;;;;22.23;17.40;;;6.50;99.90;;;5.11;100.00;98328.47;5028534;28;21253;-75
2021/10/15 01:26:08;;;;;;;18.77;16.40;;;6.40;99.90;;;5.08;100.00;98326.13;5027818;28;20569;-75
2021/10/15 01:28:36;;;;;;;21.53;16.33;;;6.40;99.90;;;4.98;100.00;98326.34;5023024;28;20458;-75
2021/10/15 01:31:03;;;;;;;17.83;16.03;;;6.40;99.90;;;4.95;100.00;98324.00;5028133;28;21029;-75
2021/10/15 01:33:31;;;;;;;20.03;16.77;;;6.30;99.90;;;5.01;100.00;98320.63;5029298;28;20458;-75
2021/10/15 01:35:58;;;;;;;20.00;16.27;;;6.30;99.90;;;4.97;100.00;98322.00;5024934;28;21414;-74
2021/10/15 01:38:26;;;;;;;20.33;16.10;;;6.20;99.90;;;4.81;100.00;98321.03;5028715;28;20513;-75
2021/10/15 01:40:54;;;;;;;19.10;15.53;;;6.20;99.90;;;4.80;100.00;98319.38;5027120;28;20557;-75
2021/10/15 01:43:24;;;;;;;18.20;16.13;;;6.10;99.90;;;4.80;100.00;98319.38;5023373;28;22214;-74
2021/10/15 01:45:52;;;;;;;28.57;16.93;;;6.10;99.90;;;4.78;100.00;98317.84;5024830;28;20557;-74
2021/10/15 01:48:20;;;;;;;19.87;14.83;;;6.10;99.90;;;4.74;100.00;98316.53;5024392;28;20562;-74
2021/10/15 01:50:47;;;;;;;19.63;15.57;;;6.00;99.90;;;4.79;100.00;98312.34;5028734;28;21081;-74
2021/10/15 01:53:14;;;;;;;20.83;16.10;;;6.10;99.90;;;4.74;100.00;98309.31;5029093;28;21049;-76
2021/10/15 01:55:43;;;;;;;21.87;14.53;;;6.10;99.90;;;4.89;100.00;98306.78;5025809;28;20574;-74
2021/10/15 01:58:10;;;;;;;21.33;16.47;;;6.10;99.90;;;4.93;100.00;98309.97;5028455;28;20450;-75
2021/10/15 02:00:38;;;;;;;17.73;14.90;;;6.20;99.90;;;4.94;100.00;98309.78;5025498;28;20466;-74
2021/10/15 02:03:05;;;;;;;19.10;16.27;;;6.20;99.90;;;4.94;100.00;98303.59;5025460;28;20549;-74
2021/10/15 02:05:32;;;;;;;17.93;15.40;;;6.20;99.90;;;4.88;100.00;98304.28;5026670;28;20485;-74
2021/10/15 02:07:59;;;;;;;19.63;15.47;;;6.20;99.90;;;4.82;100.00;98295.94;5026342;28;20476;-76
2021/10/15 02:10:26;;;;;;;18.97;14.90;;;6.20;99.90;;;4.75;100.00;98289.56;5026096;28;20447;-76
2021/10/15 02:12:55;;;;;;;16.73;14.30;;;6.10;99.90;;;4.73;100.00;98286.22;5028472;28;20549;-75
2021/10/15 02:15:23;;;;;;;17.53;14.83;;;6.00;99.90;;;4.53;100.00;98275.91;5024664;28;20477;-76
2021/10/15 02:17:51;;;;;;;23.53;18.17;;;6.00;99.90;;;4.37;100.00;98262.56;5026490;28;20466;-76
2021/10/15 02:20:20;;;;;;;21.73;17.37;;;5.90;99.90;;;4.50;100.00;98276.25;5026075;28;20476;-76
2021/10/15 02:22:50;;;;;;;26.70;17.77;;;5.80;99.90;;;4.86;100.00;98269.66;5030456;28;20471;-76
2021/10/15 02:25:18;;;;;;;22.70;17.23;;;6.10;99.90;;;4.95;100.00;98268.59;5028038;28;20488;-75
2021/10/15 02:27:47;;;;;;;25.63;17.00;;;6.20;99.90;;;4.97;100.00;98265.75;5027394;28;21054;-75
2021/10/15 02:30:18;;;;;;;28.97;17.47;;;6.30;99.90;;;5.06;100.00;98262.03;5027024;28;21006;-75
2021/10/15 02:32:46;;;;;;;23.70;16.23;;;6.30;99.90;;;5.06;100.00;98261.19;5027238;28;21050;-75
2021/10/15 02:35:15;;;;;;;23.63;17.80;;;6.40;99.90;;;5.06;100.00;98251.31;5026255;28;20577;-74
2021/10/15 02:37:42;;;;;;;26.07;17.17;;;6.40;99.90;;;5.00;100.00;98254.69;5021943;28;20463;-73
2021/10/15 02:40:11;;;;;;;21.40;16.83;;;6.40;99.90;;;5.02;100.00;98252.66;5028931;28;20477;-74
2021/10/15 02:42:38;;;;;;;22.97;17.80;;;6.30;99.90;;;4.95;100.00;98252.53;5027676;28;20489;-74
2021/10/15 02:45:07;;;;;;;24.23;17.07;;;6.30;99.90;;;4.97;100.00;98244.34;5020259;28;21042;-75
2021/10/15 02:47:35;;;;;;;19.90;17.10;;;6.30;99.90;;;4.90;100.00;98244.19;5027361;28;20604;-75
2021/10/15 02:50:03;;;;;;;23.17;17.47;;;6.30;99.90;;;4.87;100.00;98239.19;5020069;28;20976;-74
2021/10/15 02:52:30;;;;;;;27.47;17.40;;;6.20;99.90;;;4.90;100.00;98243.34;5028215;28;20556;-75
2021/10/15 02:54:57;;;;;;;21.47;17.43;;;6.30;99.90;;;5.02;100.00;98233.94;5026261;28;20574;-75
2021/10/15 02:57:25;;;;;;;20.03;15.63;;;6.30;99.90;;;4.97;100.00;98239.78;5024367;28;20534;-75
2021/10/15 02:59:52;;;;;;;21.97;16.97;;;6.30;99.90;;;4.98;100.00;98232.63;5027210;28;21051;-74
2021/10/15 03:02:18;;;;;;;20.20;16.07;;;6.30;99.90;;;4.96;100.00;98231.97;5025889;28;20565;-74
2021/10/15 03:04:47;;;;;;;18.67;15.83;;;6.30;99.90;;;4.85;100.00;98233.16;5020523;28;21082;-74
2021/10/15 03:07:14;;;;;;;18.90;15.43;;;6.20;99.90;;;4.89;100.00;98228.28;5024653;28;20541;-74
2021/10/15 03:09:41;;;;;;;25.10;16.87;;;6.20;99.90;;;4.77;100.00;98225.97;5022065;28;20547;-74
2021/10/15 03:12:08;;;;;;;18.97;15.20;;;6.20;99.90;;;4.88;100.00;98229.31;5026774;28;20538;-74
2021/10/15 03:14:35;;;;;;;19.03;15.27;;;6.20;99.90;;;4.85;100.00;98216.25;5025106;28;20463;-74
2021/10/15 03:17:02;;;;;;;20.17;15.50;;;6.20;99.90;;;4.75;100.00;98219.97;5026042;28;20514;-73
2021/10/15 03:19:29;;;;;;;23.80;16.57;;;6.10;99.90;;;4.71;100.00;98224.00;5038364;28;21061;-73
2021/10/15 03:21:58;;;;;;;17.63;14.57;;;6.10;99.90;;;4.72;100.00;98231.03;5024722;28;20986;-73
2021/10/15 03:24:27;;;;;;;20.90;14.40;;;6.10;99.90;;;4.59;100.00;98239.59;5041679;28;21087;-73
2021/10/15 03:26:54;;;;;;;17.77;15.33;;;6.00;99.90;;;4.40;100.00;98232.78;5026937;28;21021;-73
2021/10/15 03:29:21;;;;;;;16.87;14.37;;;5.80;99.90;;;4.48;100.00;98237.28;5027169;28;20461;-74
2021/10/15 03:31:48;;;;;;;21.50;15.57;;;5.80;99.90;;;4.52;100.00;98236.78;5024501;28;20537;-74
2021/10/15 03:34:15;;;;;;;22.30;14.60;;;5.80;99.90;;;4.60;100.00;98235.06;5024455;28;20579;-74
2021/10/15 03:36:42;;;;;;;22.43;15.53;;;5.80;99.90;;;4.56;100.00;98226.56;5025643;28;20463;-73
2021/10/15 03:39:11;;;;;;;22.50;17.10;;;5.90;99.90;;;4.56;100.00;98220.38;5027609;28;20860;-74
2021/10/15 03:41:38;;;;;;;23.10;16.80;;;5.90;99.90;;;4.61;100.00;98228.72;5027174;28;20482;-73
2021/10/15 03:44:06;;;;;;;23.23;15.67;;;5.90;99.90;;;4.42;100.00;98233.44;5022729;28;20466;-73
2021/10/15 03:46:33;;;;;;;19.97;16.47;;;5.90;99.90;;;4.42;100.00;98224.59;5022465;28;20494;-73
2021/10/15 03:49:00;;;;;;;21.47;15.27;;;5.80;99.90;;;4.34;100.00;98225.47;5026586;28;20482;-73
2021/10/15 03:51:27;;;;;;;20.00;15.57;;;5.70;99.90;;;4.38;100.00;98224.09;5023625;28;20870;-73
2021/10/15 03:53:54;;;;;;;17.30;15.43;;;5.70;99.90;;;4.38;100.00;98216.09;5024877;28;20459;-73
2021/10/15 03:56:22;;;;;;;20.43;15.60;;;5.70;99.90;;;4.36;100.00;98215.41;5027434;28;20871;-74
2021/10/15 03:58:49;;;;;;;18.37;15.17;;;5.70;99.90;;;4.29;100.00;98220.63;5025815;28;20450;-74
2021/10/15 04:01:16;;;;;;;24.97;18.00;;;5.70;99.90;;;4.21;100.00;98218.78;5035993;28;20455;-74
2021/10/15 04:03:43;;;;;;;19.60;16.00;;;5.60;99.90;;;4.15;100.00;98213.28;5024231;28;20885;-74
2021/10/15 04:06:10;;;;;;;20.63;16.50;;;5.60;99.90;;;4.13;100.00;98210.75;5023654;28;20470;-75
2021/10/15 04:08:37;;;;;;;21.77;14.47;;;5.60;99.90;;;4.17;100.00;98216.63;5028050;28;21025;-73
2021/10/15 04:11:04;;;;;;;21.17;16.30;;;5.50;99.90;;;4.04;100.00;98209.13;5021273;28;20797;-73
2021/10/15 04:13:32;;;;;;;21.03;16.33;;;5.50;99.90;;;4.19;100.00;98203.91;5026381;28;20482;-73
2021/10/15 04:16:01;;;;;;;18.40;14.67;;;5.50;99.90;;;4.16;100.00;98199.72;5021869;28;20482;-74
2021/10/15 04:18:29;;;;;;;18.70;14.10;;;5.50;99.90;;;4.15;100.00;98202.59;5031266;28;20466;-74
2021/10/15 04:20:56;;;;;;;21.60;15.63;;;5.50;99.90;;;4.15;100.00;98203.41;5044371;28;20466;-76
2021/10/15 04:23:24;;;;;;;21.10;16.27;;;5.60;99.90;;;4.09;100.00;98199.59;5031278;28;20474;-75
2021/10/15 04:25:51;;;;;;;19.43;14.90;;;5.50;99.90;;;4.09;100.00;98199.59;5029784;28;21077;-74
2021/10/15 04:28:19;;;;;;;21.90;15.50;;;5.50;99.90;;;4.05;100.00;98192.06;5030619;28;20450;-75
2021/10/15 04:30:48;;;;;;;20.10;14.87;;;5.50;99.90;;;4.04;100.00;98193.06;5028672;28;20459;-74
2021/10/15 04:33:16;;;;;;;19.90;14.70;;;5.40;99.90;;;4.06;100.00;98191.06;5028844;28;20453;-74
2021/10/15 04:35:44;;;;;;;18.67;15.60;;;5.40;99.90;;;3.95;100.00;98193.06;5028064;28;20481;-74
2021/10/15 04:38:12;;;;;;;19.80;14.77;;;5.40;99.90;;;3.91;100.00;98191.75;5030434;28;20454;-75
2021/10/15 04:40:39;;;;;;;22.60;15.37;;;5.30;99.90;;;4.01;100.00;98190.72;5031082;28;20576;-75
2021/10/15 04:43:07;;;;;;;23.00;15.93;;;5.40;99.90;;;3.99;100.00;98182.03;5027508;28;21054;-77
2021/10/15 04:45:34;;;;;;;21.23;15.00;;;5.40;99.90;;;3.92;100.00;98174.69;5045117;28;20474;-77
2021/10/15 04:48:03;;;;;;;20.27;14.70;;;5.40;99.90;;;3.95;100.00;98182.38;5025642;28;20548;-75
2021/10/15 04:50:30;;;;;;;22.40;15.40;;;5.40;99.90;;;3.96;100.00;98184.03;5028528;28;20462;-75
2021/10/15 04:52:57;;;;;;;17.17;13.87;;;5.30;99.90;;;3.96;100.00;98178.69;5028876;28;20493;-76
2021/10/15 04:55:24;;;;;;;19.17;14.30;;;5.30;99.90;;;3.87;100.00;98178.88;5025587;28;20576;-81
2021/10/15 04:57:51;;;;;;;20.13;13.97;;;5.30;99.90;;;3.72;100.00;98174.22;5028092;28;20494;-79
2021/10/15 05:00:19;;;;;;;16.10;13.40;;;5.20;99.90;;;3.77;100.00;98168.38;5028653;28;20457;-80
2021/10/15 05:02:48;;;;;;;18.90;12.87;;;5.20;99.90;;;3.90;100.00;98173.19;5024390;28;20496;-80
2021/10/15 05:05:19;;;;;;;15.97;12.97;;;5.30;99.90;;;3.89;100.00;98166.19;5025928;28;20474;-77
2021/10/15 05:07:46;;;;;;;23.27;15.53;;;5.30;99.90;;;3.88;100.00;98162.69;5030892;28;20497;-79
2021/10/15 05:10:13;;;;;;;21.00;14.47;;;5.30;99.90;;;3.88;100.00;98154.66;5030011;28;20886;-80
2021/10/15 05:12:41;;;;;;;24.10;14.70;;;5.30;99.90;;;3.91;100.00;98154.31;5026830;28;20966;-79
2021/10/15 05:15:10;;;;;;;22.60;15.10;;;5.40;99.90;;;3.88;100.00;98159.16;5024843;28;20478;-83
2021/10/15 05:17:37;;;;;;;19.73;14.27;;;5.30;99.90;;;4.05;100.00;98151.97;5024817;28;20497;-79
2021/10/15 05:20:06;;;;;;;21.33;14.77;;;5.40;99.90;;;3.95;100.00;98160.19;5021613;28;20541;-84
2021/10/15 05:22:35;;;;;;;16.47;14.00;;;5.40;99.90;;;3.88;100.00;98154.66;5029036;28;20958;-74
2021/10/15 05:25:03;;;;;;;21.10;14.10;;;5.30;99.90;;;3.93;100.00;98152.31;5025960;28;20471;-79
2021/10/15 05:27:30;;;;;;;21.70;14.03;;;5.40;99.90;;;3.93;100.00;98146.97;5026232;28;20466;-80
2021/10/15 05:29:58;;;;;;;17.77;13.60;;;5.30;99.90;;;3.85;100.00;98144.28;5024622;28;20539;-73
2021/10/15 05:32:25;;;;;;;18.90;13.60;;;5.30;99.90;;;3.81;100.00;98148.31;5024314;28;20459;-74
2021/10/15 05:34:52;;;;;;;20.00;12.87;;;5.20;99.90;;;3.73;100.00;98153.69;5026101;28;20466;-73
2021/10/15 05:37:19;;;;;;;15.20;13.43;;;5.20;99.90;;;3.64;100.00;98152.81;5026532;28;20459;-72
2021/10/15 05:39:47;;;;;;;17.90;13.10;;;5.10;99.90;;;3.56;100.00;98150.16;5025319;28;20466;-73
2021/10/15 05:42:14;;;;;;;21.40;13.67;;;5.00;99.90;;;3.54;100.00;98158.34;5022429;28;20514;-73
2021/10/15 05:44:42;;;;;;;20.10;14.17;;;4.90;99.90;;;3.54;100.00;98155.66;5023435;28;21923;-73
2021/10/15 05:47:10;;;;;;;17.30;12.90;;;4.90;99.90;;;3.68;100.00;98157.66;5026498;28;20553;-79
2021/10/15 05:49:39;;;;;;;16.90;13.40;;;5.00;99.90;;;3.76;100.00;98151.47;5021096;28;21021;-74
2021/10/15 05:52:09;;;;;;;17.50;13.00;;;5.20;99.90;;;3.79;100.00;98161.00;5023308;28;20960;-74
2021/10/15 05:54:44;;;;;;;20.90;14.33;;;5.20;99.90;;;3.77;100.00;98153.16;5022326;28;20491;-72
2021/10/15 06:00:01;;;;;;;21.20;13.83;;;5.20;99.90;;;3.80;100.00;98152.00;5012033;28;20544;-72
2021/10/15 06:02:32;;;;;;;16.60;14.30;;;5.30;99.90;;;3.74;100.00;98153.50;5026461;28;20524;-72
2021/10/15 06:16:18;;;;;;;17.90;14.13;;;5.30;99.90;;;3.92;100.00;98155.13;5024819;28;20448;-72
2021/10/15 06:18:52;;;;;;;19.10;13.73;;;5.40;99.90;;;3.96;100.00;98156.50;5039663;28;20446;-72
2021/10/15 06:21:19;;;;;;;17.47;13.37;;;5.40;99.90;;;3.91;100.00;98154.31;5029107;28;20450;-72
2021/10/15 06:23:46;;;;;;;18.70;13.87;;;5.40;99.90;;;4.05;100.00;98147.44;5033133;28;20463;-72
2021/10/15 06:26:13;;;;;;;19.77;14.23;;;5.50;99.90;;;4.20;100.00;98149.41;5023364;28;20496;-72
2021/10/15 06:28:41;;;;;;;16.80;13.03;;;5.60;99.90;;;4.31;100.00;98126.81;5017786;28;20881;-72
2021/10/15 06:31:08;;;;;;;18.33;15.50;;;5.70;99.90;;;4.42;100.00;98141.66;5018465;28;20653;-72
2021/10/15 06:33:36;;;;;;;16.80;13.77;;;5.70;99.90;;;4.39;100.00;98140.16;5021787;28;20451;-72
2021/10/15 06:36:03;;;;;;;15.73;13.00;;;5.80;99.90;;;4.58;100.00;98156.81;5029907;28;20506;-72
2021/10/15 06:38:30;;;;;;;14.27;12.70;;;5.90;99.90;;;4.58;100.00;98143.44;5027544;28;20473;-73
2021/10/15 06:40:57;;;;;;;15.23;12.00;;;5.90;99.90;;;4.48;100.00;98157.88;5024101;28;20990;-72
2021/10/15 06:43:24;;;;;;;17.20;12.87;;;5.90;99.90;;;4.71;100.00;98153.59;5025906;28;20689;-72
2021/10/15 06:45:53;;;;;;;15.60;11.90;;;6.00;99.90;;;4.70;100.00;98160.78;5022148;28;20478;-72
2021/10/15 06:48:20;;;;;;;17.83;11.53;;;6.00;99.30;;;4.82;100.00;98146.00;5028677;28;20815;-73
2021/10/15 06:50:47;;;;;;;16.10;13.43;;;6.10;99.90;;;4.96;100.00;98154.31;5025377;28;20462;-72
2021/10/15 06:53:15;;;;;;;16.67;12.60;;;6.20;99.60;;;4.87;100.00;98152.66;5022414;28;20501;-73
2021/10/15 06:55:42;;;;;;;19.57;11.70;;;6.20;98.60;;;4.82;100.00;98155.84;5026425;28;20474;-70
2021/10/15 06:58:09;;;;;;;12.67;11.33;;;6.20;98.40;;;4.99;100.00;98148.59;5019591;28;20467;-69
2021/10/15 07:00:36;;;;;;;12.80;11.40;;;6.30;98.30;;;4.98;100.00;98125.50;5023658;28;20466;-69
2021/10/15 07:03:14;;;;;;;13.37;11.53;;;6.40;98.10;;;5.23;99.95;98157.47;5025781;28;20994;-70
2021/10/15 07:05:45;;;;;;;14.53;12.10;;;6.50;97.50;;;5.34;100.00;98154.38;5018161;28;20533;-71
2021/10/15 07:08:13;;;;;;;14.07;11.93;;;6.60;97.70;;;5.41;99.43;98159.84;5019636;28;20560;-70
2021/10/15 07:10:40;;;;;;;14.80;11.00;;;6.70;97.00;;;5.58;98.16;98159.72;5021149;28;20543;-70
2021/10/15 07:13:07;;;;;;;13.03;11.80;;;6.90;96.70;;;5.72;99.02;98150.09;5019034;28;20466;-70
2021/10/15 07:15:35;;;;;;;19.30;11.90;;;7.00;97.00;;;5.90;98.37;98153.25;5018944;28;20509;-69
2021/10/15 07:18:03;;;;;;;15.00;11.60;;;7.20;96.10;;;6.20;97.41;98153.34;5017306;28;20502;-70
2021/10/15 07:20:31;;;;;;;12.27;10.80;;;7.40;95.40;;;6.36;97.85;98162.22;5023053;28;20627;-70
2021/10/15 07:22:58;;;;;;;12.93;10.67;;;7.60;95.60;;;6.48;95.85;98149.16;5022445;28;20478;-69
2021/10/15 07:25:26;;;;;;;11.23;10.03;;;7.80;93.10;;;6.75;96.00;98161.09;5019418;28;20510;-70
2021/10/15 07:27:53;;;;;;;10.77;9.67;;;7.90;94.30;;;6.74;94.75;98156.72;5015517;28;20561;-68
2021/10/15 07:30:20;;;;;;;12.97;10.50;;;8.00;92.90;;;7.08;95.07;98157.97;5016299;28;20455;-69
2021/10/15 07:32:52;;;;;;;12.30;10.20;;;8.30;93.30;;;6.93;93.26;98152.63;5019170;28;20489;-71
2021/10/15 07:35:21;;;;;;;11.50;9.90;;;8.20;91.30;;;6.88;92.34;98156.91;5020822;28;20902;-71
2021/10/15 07:37:49;;;;;;;11.70;9.60;;;8.20;90.50;;;6.91;92.80;98159.22;5036236;28;20458;-71
2021/10/15 07:40:16;;;;;;;11.33;10.20;;;8.20;90.40;;;7.08;92.58;98155.28;5019787;28;20465;-72
2021/10/15 07:42:43;;;;;;;12.83;9.90;;;8.30;90.60;;;7.19;91.85;98143.22;5023034;28;20860;-73
2021/10/15 07:45:11;;;;;;;10.87;9.83;;;8.40;90.70;;;7.21;91.52;98154.59;5021476;28;20475;-73
2021/10/15 07:47:38;;;;;;;9.40;8.50;;;8.50;89.90;;;7.44;90.83;98163.50;5020661;28;20490;-72
2021/10/15 07:50:06;;;;;;;12.40;9.20;;;8.60;90.00;;;7.69;90.36;98161.25;5025499;28;20487;-73
2021/10/15 07:52:33;;;;;;;10.43;9.33;;;8.70;90.00;;;7.50;89.38;98163.56;5021150;28;20525;-74
2021/10/15 07:55:02;;;;;;;10.70;9.47;;;8.70;87.40;;;7.74;88.54;98169.59;5014599;28;21215;-74
2021/10/15 07:57:28;;;;;;;12.80;9.80;;;8.90;87.00;;;7.82;89.90;98176.69;5021586;28;20474;-73
2021/10/15 07:59:55;;;;;;;10.00;8.97;;;9.00;88.90;;;7.88;88.29;98173.22;5015583;28;20775;-71
2021/10/15 08:02:25;;;;;;;10.57;9.47;;;9.10;87.30;;;8.08;88.36;98170.69;5019684;28;20553;-72
2021/10/15 08:04:52;;;;;;;16.67;9.67;;;9.20;87.50;;;8.28;86.46;98177.25;5019362;28;21017;-72
2021/10/15 08:07:19;;;;;;;10.73;9.60;;;9.40;85.60;;;8.30;86.22;98169.81;5020663;28;20521;-75
2021/10/15 08:09:46;;;;;;;9.87;8.87;;;9.40;84.40;;;8.29;85.72;98154.69;5021174;28;20550;-78
2021/10/15 08:12:15;;;;;;;10.63;8.67;;;9.50;84.30;;;8.28;84.44;98161.09;5025171;28;20458;-72
2021/10/15 08:14:42;;;;;;;9.00;8.10;;;9.50;82.30;;;8.30;83.39;98156.34;5019550;28;20470;-71
2021/10/15 08:17:09;;;;;;;10.53;9.40;;;9.60;80.60;;;8.57;83.58;98164.59;5017193;28;20486;-82
2021/10/15 08:19:37;;;;;;;9.23;8.43;;;9.70;81.90;;;8.72;83.20;98167.16;5021299;28;20474;-81
2021/10/15 08:22:05;;;;;;;13.40;10.80;;;9.90;81.30;;;8.86;83.83;98165.34;5020034;28;20447;-73
2021/10/15 08:24:32;;;;;;;10.00;7.77;;;9.90;82.20;;;9.01;80.63;98168.72;5020342;28;21009;-73
2021/10/15 08:26:59;;;;;;;8.87;8.00;;;10.20;78.10;;;8.80;80.19;98167.00;5020670;28;20469;-69
2021/10/15 08:29:27;;;;;;;8.90;8.00;;;10.10;76.00;;;9.01;80.14;98163.34;5015507;28;20992;-76
2021/10/15 08:31:54;;;;;;;15.00;8.03;;;10.20;77.20;;;9.24;79.25;98170.28;5022179;28;20903;-76
2021/10/15 08:34:22;;;;;;;11.70;7.40;;;10.40;76.40;;;9.28;80.29;98173.41;5021449;28;20504;-75
2021/10/15 08:36:53;;;;;;;10.73;7.67;;;10.40;77.80;;;9.52;78.89;98181.94;5021199;28;20569;-75
2021/10/15 08:39:22;;;;;;;10.23;7.97;;;10.60;75.80;;;9.70;79.15;98175.97;5023312;28;20469;-75
2021/10/15 08:41:49;;;;;;;13.90;8.33;;;10.80;75.80;;;9.96;76.62;98179.72;5025755;28;20485;-76
2021/10/15 08:44:16;;;;;;;12.67;7.70;;;11.00;74.60;;;9.96;75.04;98168.94;5024355;28;20493;-76
2021/10/15 08:46:44;;;;;;;8.80;7.37;;;11.20;72.80;;;9.73;77.10;98165.59;5026522;28;20462;-75
2021/10/15 08:49:11;;;;;;;9.87;7.90;;;10.90;73.30;;;9.88;76.34;98168.09;5022958;28;20549;-75
2021/10/15 08:51:39;;;;;;;8.60;7.70;;;11.00;72.90;;;9.88;74.98;98165.38;5024704;28;20541;-76
2021/10/15 08:54:07;;;;;;;8.70;7.43;;;11.00;72.00;;;10.05;75.16;98162.25;5022961;28;20458;-76
2021/10/15 08:56:35;;;;;;;10.50;8.33;;;11.20;71.50;;;10.19;73.59;98169.31;5026203;28;20457;-76
2021/10/15 08:59:08;;;;;;;7.83;7.13;;;11.30;70.60;;;10.03;74.46;98165.19;5025208;28;20568;-76
2021/10/15 09:01:44;;;;;;;11.10;8.30;;;11.20;69.80;;;10.25;74.13;98166.84;5027222;28;20446;-76
2021/10/15 09:04:16;;;;;;;9.10;7.93;;;11.40;70.20;;;10.54;73.44;98159.31;5027415;28;20482;-76
2021/10/15 09:06:44;;;;;;;10.90;8.10;;;11.60;70.30;;;10.56;72.01;98152.66;5018461;28;20456;-76
2021/10/15 09:09:12;;;;;;;7.90;7.00;;;11.70;69.40;;;10.75;72.06;98156.34;5025341;28;21037;-76
2021/10/15 09:11:41;;;;;;;12.00;7.33;;;11.80;69.40;;;10.82;72.59;98152.78;5027298;28;20458;-76
2021/10/15 09:14:13;;;;;;;7.93;7.13;;;11.90;69.00;;;10.93;71.59;98146.72;5023245;28;20534;-75
2021/10/15 09:17:05;;;;;;;10.83;6.33;;;12.10;68.60;;;11.25;71.41;98138.66;5025902;28;20458;-75
2021/10/15 09:19:35;;;;;;;8.17;7.37;;;12.30;68.70;;;11.10;69.51;98136.25;5027255;28;20943;-75
2021/10/15 09:22:19;;;;;;;10.20;7.00;;;12.30;66.40;;;11.09;69.96;98139.16;5028369;28;20465;-76
2021/10/15 09:24:52;;;;;;;8.13;7.17;;;12.20;66.30;;;11.27;69.40;98131.16;5026685;28;20485;-76
2021/10/15 09:27:32;;;;;;;9.63;7.10;;;12.30;66.80;;;11.45;67.35;98126.91;5025386;28;20990;-76
2021/10/15 09:30:02;;;;;;;8.27;7.13;;;12.50;65.00;;;11.56;67.59;98120.75;5026219;28;20678;-76
2021/10/15 09:32:34;;;;;;;7.13;6.53;;;12.60;65.50;;;11.15;67.99;98127.50;5020900;28;20959;-76
2021/10/15 09:35:02;;;;;;;8.70;7.30;;;12.50;64.40;;;11.36;68.49;98128.19;5025712;28;20552;-76
2021/10/15 09:37:35;;;;;;;7.07;5.90;;;12.50;65.70;;;11.48;67.23;98115.63;5024504;28;20454;-76
2021/10/15 09:40:07;;;;;;;7.67;6.90;;;12.50;64.40;;;11.35;67.78;98119.25;5026379;28;20474;-77
2021/10/15 09:42:38;;;;;;;8.37;6.27;;;12.60;64.70;;;11.28;66.59;98127.38;5029665;28;20538;-76
2021/10/15 09:45:14;;;;;;;7.93;6.67;;;12.40;63.40;;;11.59;67.54;98123.03;5026205;28;21009;-76
2021/10/15 09:47:44;;;;;;;8.53;7.27;;;12.60;64.50;;;11.75;67.49;98129.78;5029068;28;20457;-77
2021/10/15 09:50:15;;;;;;;8.43;6.87;;;12.80;64.60;;;11.90;66.01;98129.47;5027551;28;20454;-76
2021/10/15 09:52:45;;;;;;;7.60;6.90;;;13.00;63.60;;;12.00;65.63;98128.13;5029091;28;20486;-76
2021/10/15 09:55:22;;;;;;;6.53;5.93;;;13.10;63.30;;;12.03;65.24;98122.28;5024935;28;20544;-75
2021/10/15 09:57:51;;;;;;;8.07;7.37;;;13.20;63.00;;;12.16;67.37;98124.88;5030057;28;20517;-76
2021/10/15 10:00:21;;;;;;;11.07;8.17;;;13.30;64.20;;;12.64;64.97;98111.66;5027601;28;20463;-76
2021/10/15 10:02:50;;;;;;;8.67;6.73;;;13.60;63.40;;;13.04;61.58;98115.75;5028634;28;20454;-76
2021/10/15 10:05:19;;;;;;;7.40;6.70;;;14.00;61.30;;;13.08;62.48;98116.97;5025732;28;20564;-76
2021/10/15 10:07:48;;;;;;;6.50;6.00;;;14.20;61.30;;;13.21;61.77;98126.78;5029090;28;20551;-76
2021/10/15 10:10:17;;;;;;;7.97;7.20;;;14.30;60.80;;;13.01;62.13;98117.06;5028090;28;20458;-76
2021/10/15 10:12:46;;;;;;;7.33;6.57;;;14.30;60.30;;;13.27;61.68;98125.91;5028467;28;20508;-77
2021/10/15 10:15:15;;;;;;;7.27;6.57;;;14.40;60.30;;;13.44;60.54;98115.22;5024485;28;20898;-76
2021/10/15 10:17:51;;;;;;;7.80;6.57;;;14.50;59.50;;;13.20;60.78;98114.28;5027243;28;20994;-75
2021/10/15 10:20:26;;;;;;;9.57;7.63;;;14.50;59.30;;;13.24;60.79;98115.47;5024990;28;20465;-76
2021/10/15 10:23:03;;;;;;;6.83;6.20;;;14.60;59.50;;;13.84;58.58;98119.19;5042755;28;20456;-77
2021/10/15 10:25:31;;;;;;;7.77;7.00;;;14.80;59.10;;;13.66;58.50;98111.16;5023453;28;20532;-76
2021/10/15 10:28:20;;;;;;;8.20;6.90;;;14.80;58.10;;;13.42;59.99;98121.91;5027557;28;20588;-76
2021/10/15 10:30:50;;;;;;;6.50;5.90;;;14.70;58.40;;;13.55;60.46;98116.31;5026683;28;20458;-77
2021/10/15 10:33:20;;;;;;;8.70;6.80;;;14.60;59.30;;;14.00;58.82;98106.81;5026353;28;20470;-77
2021/10/15 10:35:52;;;;;;;6.70;5.70;;;15.00;58.50;;;14.07;57.65;98095.00;5024345;28;20983;-78